createdAt,value
2023-04-16T00:02:59.143Z,25.7
2023-04-16T00:08:53.101Z,25.5
2023-04-16T00:14:28.393Z,25.3
2023-04-16T00:20:20.729Z,25.1
2023-04-16T00:26:12.305Z,24.9
2023-04-16T00:31:47.890Z,23.7
2023-04-16T00:37:23.841Z,24.1
2023-04-16T00:43:16.192Z,25.6
2023-04-16T00:49:08.234Z,25.8
2023-04-16T00:54:44.580Z,25.6
2023-04-16T01:00:21.094Z,25.4
2023-04-16T01:05:44.164Z,25.2
2023-04-16T01:11:20.859Z,24.9
2023-04-16T01:16:57.268Z,24.7
2023-04-16T01:22:48.991Z,23.6
2023-04-16T01:28:09.291Z,24.3
2023-04-16T01:33:46.161Z,25.6
2023-04-16T01:39:37.469Z,25.7
2023-04-16T01:45:13.074Z,25.6
2023-04-16T01:51:05.692Z,25.4
2023-04-16T01:56:41.475Z,25.1
2023-04-16T02:02:33.988Z,24.9
2023-04-16T02:08:11.043Z,24.7
2023-04-16T02:13:46.690Z,23.5
2023-04-16T02:19:38.600Z,24.3
2023-04-16T02:25:30.001Z,25.6
2023-04-16T02:31:20.863Z,25.7
2023-04-16T02:37:12.476Z,25.5
2023-04-16T02:43:04.005Z,25.3
2023-04-16T02:48:56.348Z,25.1
2023-04-16T02:54:47.182Z,24.9
2023-04-16T03:00:39.071Z,24.6
2023-04-16T03:06:15.590Z,23.4
2023-04-16T03:12:06.984Z,24.9
2023-04-16T03:17:43.525Z,25.7
2023-04-16T03:23:35.483Z,25.7
2023-04-16T03:29:27.185Z,25.5
2023-04-16T03:35:19.016Z,25.3
2023-04-16T03:41:10.413Z,25.1
2023-04-16T03:46:31.026Z,24.8
2023-04-16T03:52:23.065Z,24.6
2023-04-16T03:57:59.070Z,23.4
2023-04-16T04:03:52.577Z,24.9
2023-04-16T04:09:29.824Z,25.8
2023-04-16T04:15:21.299Z,25.7
2023-04-16T04:21:23.462Z,25.6
2023-04-16T04:26:44.418Z,25.3
2023-04-16T04:32:36.019Z,25.1
2023-04-16T04:38:27.579Z,24.9
2023-04-16T04:44:18.961Z,24.6
2023-04-16T04:50:12.701Z,23.4
2023-04-16T04:55:52.251Z,25.4
2023-04-16T05:01:45.229Z,25.8
2023-04-16T05:07:37.519Z,25.6
2023-04-16T05:13:13.794Z,25.5
2023-04-16T05:18:50.859Z,25.3
2023-04-16T05:24:42.568Z,25.1
2023-04-16T05:30:34.735Z,24.8
2023-04-16T05:36:26.910Z,23.8
2023-04-16T05:42:18.395Z,24.2
2023-04-16T05:47:57.642Z,25.7
2023-04-16T05:53:49.277Z,25.8
2023-04-16T05:59:40.910Z,25.6
2023-04-16T06:05:18.263Z,25.4
2023-04-16T06:10:55.202Z,25.3
2023-04-16T06:16:33.457Z,25
2023-04-16T06:22:24.520Z,24.8
2023-04-16T06:28:18.693Z,24.5
2023-04-16T06:34:06.165Z,23.4
2023-04-16T06:39:57.975Z,25.4
2023-04-16T06:45:34.021Z,25.8
2023-04-16T06:51:09.883Z,25.7
2023-04-16T06:56:46.846Z,25.5
2023-04-16T07:02:39.432Z,25.3
2023-04-16T07:08:32.021Z,25.1
2023-04-16T07:14:23.780Z,24.9
2023-04-16T07:20:16.769Z,24.7
2023-04-16T07:26:07.724Z,23.4
2023-04-16T07:31:58.761Z,25.3
2023-04-16T07:37:20.422Z,25.9
2023-04-16T07:43:13.165Z,25.8
2023-04-16T07:49:17.919Z,25.6
2023-04-16T07:55:08.771Z,25.4
2023-04-16T08:00:44.922Z,25.2
2023-04-16T08:06:39.396Z,25
2023-04-16T08:12:31.558Z,24.8
2023-04-16T08:18:23.259Z,23.4
2023-04-16T08:24:15.209Z,25.4
2023-04-16T08:30:19.934Z,25.9
2023-04-16T08:36:12.223Z,25.8
2023-04-16T08:42:04.047Z,25.6
2023-04-16T08:47:40.623Z,25.5
2023-04-16T08:53:32.647Z,25.3
2023-04-16T08:59:24.609Z,25
2023-04-16T09:05:18.736Z,23.7
2023-04-16T09:11:09.981Z,25.2
2023-04-16T09:17:01.399Z,26
2023-04-16T09:22:53.787Z,25.9
2023-04-16T09:28:31.843Z,25.8
2023-04-16T09:34:24.421Z,25.5
2023-04-16T09:40:02.081Z,25.3
2023-04-16T09:45:40.138Z,25.1
2023-04-16T09:51:35.952Z,23.7
2023-04-16T09:57:27.445Z,25.6
2023-04-16T10:03:41.506Z,26.1
2023-04-16T10:09:33.608Z,26
2023-04-16T10:15:24.757Z,25.8
2023-04-16T10:21:16.810Z,25.6
2023-04-16T10:27:08.710Z,25.4
2023-04-16T10:32:45.871Z,25.1
2023-04-16T10:38:50.026Z,24.9
2023-04-16T10:44:45.379Z,24.6
2023-04-16T10:50:46.391Z,24.3
2023-04-16T10:56:37.918Z,24
2023-04-16T11:02:15.566Z,23.8
2023-04-16T11:08:09.595Z,23.6
2023-04-16T11:14:09.374Z,23.4
2023-04-16T11:20:17.346Z,23.3
2023-04-16T11:26:11.828Z,23
2023-04-16T11:32:02.983Z,22.9
2023-04-16T11:37:53.879Z,22.8
2023-04-16T11:43:47.124Z,22.6
2023-04-16T11:49:50.595Z,22.5
2023-04-16T11:55:26.404Z,22.4
2023-04-16T12:01:47.069Z,22.3
2023-04-16T12:07:40.216Z,22.2
2023-04-16T12:13:31.937Z,22.1
2023-04-16T12:19:07.881Z,22
2023-04-16T12:24:43.915Z,21.9
2023-04-16T12:30:22.664Z,21.8
2023-04-16T12:36:28.076Z,21.8
2023-04-16T12:42:18.367Z,21.8
2023-04-16T12:48:10.075Z,21.6
2023-04-16T12:54:03.105Z,21.6
2023-04-16T12:59:55.080Z,21.6
2023-04-16T13:05:49.512Z,21.6
2023-04-16T13:11:41.839Z,21.5
2023-04-16T13:17:33.806Z,21.4
2023-04-16T13:23:26.252Z,21.4
2023-04-16T13:29:18.529Z,21.4
2023-04-16T13:35:13.437Z,21.3
2023-04-16T13:40:52.548Z,21.3
2023-04-16T13:46:29.418Z,21.3
2023-04-16T13:52:05.969Z,21.2
2023-04-16T14:03:20.715Z,21.2
2023-04-16T14:19:23.451Z,21.1
2023-04-16T14:25:14.503Z,21
2023-04-16T14:31:06.580Z,21.1
2023-04-16T14:36:58.775Z,21
2023-04-16T14:42:35.378Z,21
2023-04-16T14:48:26.814Z,20.9
2023-04-16T18:55:19.892Z,20.3
2023-04-16T19:01:12.900Z,20.3
2023-04-16T19:06:49.262Z,20.2
2023-04-16T19:12:39.429Z,20.2
2023-04-16T19:18:19.472Z,20.2
2023-04-16T19:23:54.243Z,20.2
2023-04-16T19:29:47.445Z,20.2
2023-04-16T19:35:41.225Z,20.2
2023-04-16T19:41:32.333Z,20.2
2023-04-16T19:47:22.703Z,20.2
2023-04-16T19:53:15.343Z,20.2
2023-04-16T19:59:05.498Z,20.2
2023-04-16T20:04:57.268Z,20.2
2023-04-16T20:10:50.217Z,20.1
2023-04-16T20:16:40.379Z,20.1
2023-04-16T20:22:37.572Z,21.4
2023-04-16T20:28:30.232Z,23.4
2023-04-16T20:34:23.020Z,25.1
2023-04-16T20:40:16.499Z,25.9
2023-04-16T20:46:09.393Z,24.6
2023-04-16T20:51:45.798Z,25.3
2023-04-16T20:57:37.700Z,26.3
2023-04-16T21:03:31.383Z,26.4
2023-04-16T21:09:23.228Z,24.7
2023-04-16T21:14:58.210Z,25
2023-04-16T21:20:20.151Z,26.4
2023-04-16T21:25:55.848Z,26.6
2023-04-16T21:31:32.096Z,26.4
2023-04-16T21:37:24.712Z,24.9
2023-04-16T21:42:45.134Z,25.1
2023-04-16T21:48:21.981Z,26.5
2023-04-16T21:54:15.041Z,26.7
2023-04-16T21:59:50.916Z,26.4
2023-04-16T22:05:44.462Z,26.2
2023-04-16T22:11:54.667Z,24.5
2023-04-16T22:18:01.314Z,26.4
2023-04-16T22:23:52.608Z,26.7
2023-04-16T22:29:45.047Z,26.5
2023-04-16T22:35:35.397Z,26.2
2023-04-16T22:41:26.719Z,24.4
2023-04-16T22:47:19.415Z,26.4
2023-04-16T22:53:09.615Z,26.8
2023-04-16T22:58:45.434Z,26.6
2023-04-16T23:04:39.521Z,26.3
2023-04-16T23:10:30.395Z,25.1
2023-04-16T23:16:05.928Z,25.3
2023-04-16T23:21:28.022Z,26.9
2023-04-16T23:26:48.259Z,26.9
2023-04-16T23:32:24.227Z,26.6
2023-04-16T23:38:16.763Z,26.3
2023-04-16T23:44:08.291Z,25.1
2023-04-16T23:49:28.755Z,25.5
2023-04-16T23:55:06.128Z,26.9
